Time;durP1;ratioP1;P1;durP2;ratioP2;P2;SDS_P1;SDS_P2;PMS_P1;PMS_P2;Temp;Humidity;BMP_temperature;BMP_pressure;BME280_temperature;BME280_humidity;BME280_pressure;Samples;Min_cycle;Max_cycle;Signal;HPM_P1;HPM_P2
2021/09/30 00:02:29;;;;;;;6.30;4.32;;;17.60;99.90;;;;;;5017154;28;20045;-66
2021/09/30 00:05:34;;;;;;;9.48;4.88;;;17.60;99.90;;;;;;5023173;28;20040;-66
2021/09/30 00:08:38;;;;;;;8.98;3.90;;;17.60;99.90;;;;;;5012076;28;20045;-66
2021/09/30 00:11:48;;;;;;;7.35;4.32;;;17.50;99.90;;;;;;5008962;28;20041;-66
2021/09/30 00:15:06;;;;;;;9.30;4.43;;;17.60;99.90;;;;;;5019682;28;20404;-66
2021/09/30 00:35:23;;;;;;;9.48;4.50;;;17.50;99.90;;;;;;5021663;28;19933;-65
2021/09/30 00:48:44;;;;;;;8.00;4.28;;;17.40;99.90;;;;;;4997511;28;20037;-65
2021/09/30 02:58:37;;;;;;;14.05;8.48;;;15.70;99.90;;;;;;5006741;28;20037;-65
2021/09/30 03:01:46;;;;;;;13.57;8.40;;;15.70;99.90;;;;;;5014052;28;20041;-65
2021/09/30 03:04:51;;;;;;;13.63;7.82;;;15.60;99.90;;;;;;5013698;28;20040;-65
2021/09/30 03:07:57;;;;;;;12.18;7.15;;;15.60;99.90;;;;;;5010622;28;20463;-65
2021/09/30 03:11:03;;;;;;;10.05;6.97;;;15.60;99.90;;;;;;5009823;28;20040;-65
2021/09/30 03:14:09;;;;;;;13.73;6.68;;;15.60;99.90;;;;;;5010844;28;20036;-65
2021/09/30 03:17:19;;;;;;;11.23;6.57;;;15.50;99.90;;;;;;5007232;28;20045;-66
2021/09/30 03:20:50;;;;;;;11.15;6.20;;;15.50;99.90;;;;;;5004971;28;20411;-65
2021/09/30 03:23:54;;;;;;;10.52;6.38;;;15.50;99.90;;;;;;5023329;28;20068;-65
2021/09/30 03:27:01;;;;;;;9.73;6.32;;;15.50;99.90;;;;;;5014414;28;20048;-65
2021/09/30 03:30:05;;;;;;;12.82;6.20;;;15.40;99.90;;;;;;5001729;28;20048;-65
2021/09/30 03:33:11;;;;;;;12.50;6.55;;;15.50;99.90;;;;;;5006786;28;20036;-66
2021/09/30 03:36:23;;;;;;;11.57;6.07;;;15.40;99.90;;;;;;5011917;28;20052;-65
2021/09/30 03:39:27;;;;;;;13.07;6.07;;;15.40;99.90;;;;;;5006519;28;20048;-65
2021/09/30 03:42:31;;;;;;;10.13;6.50;;;15.40;99.90;;;;;;5023056;28;20069;-65
2021/09/30 03:45:41;;;;;;;15.13;6.28;;;15.40;99.90;;;;;;5018701;28;20044;-65
2021/09/30 03:48:56;;;;;;;13.05;6.40;;;15.30;99.90;;;;;;5011786;28;20048;-65
2021/09/30 04:02:00;;;;;;;;;;;15.30;99.90;;;;;;5009858;28;20060;-65
2021/09/30 04:05:04;;;;;;;20.38;9.82;;;15.30;99.90;;;;;;5012733;28;19921;-65
2021/09/30 04:08:10;;;;;;;15.40;9.02;;;15.30;99.90;;;;;;5006092;28;20397;-65
2021/09/30 04:11:14;;;;;;;18.88;9.85;;;15.30;99.90;;;;;;5002385;28;20514;-65
2021/09/30 04:14:20;;;;;;;17.63;9.73;;;15.30;99.90;;;;;;5011241;28;20025;-65
2021/09/30 04:17:25;;;;;;;18.77;9.40;;;15.30;99.90;;;;;;5005682;28;20222;-66
2021/09/30 04:20:30;;;;;;;20.48;8.73;;;15.30;99.90;;;;;;5004671;28;20032;-65
2021/09/30 04:23:40;;;;;;;18.58;9.10;;;15.30;99.90;;;;;;5009745;28;20040;-65
2021/09/30 04:26:44;;;;;;;16.92;10.25;;;15.30;99.90;;;;;;5018429;28;20040;-65
2021/09/30 04:29:49;;;;;;;19.35;10.27;;;15.20;99.90;;;;;;4998295;28;20049;-65
2021/09/30 04:32:53;;;;;;;19.05;9.80;;;15.20;99.90;;;;;;5019192;28;20399;-65
2021/09/30 04:35:58;;;;;;;19.23;10.73;;;15.10;99.90;;;;;;5012983;28;20040;-65
2021/09/30 04:39:03;;;;;;;22.52;11.23;;;15.10;99.90;;;;;;5010263;28;20068;-65
2021/09/30 04:42:10;;;;;;;19.52;10.55;;;15.00;99.90;;;;;;5009156;28;20044;-64
2021/09/30 04:45:14;;;;;;;21.45;11.60;;;14.90;99.90;;;;;;5005923;28;20048;-65
2021/09/30 04:48:27;;;;;;;24.60;12.68;;;14.90;99.90;;;;;;5011276;28;20056;-65
2021/09/30 04:51:42;;;;;;;21.42;11.32;;;14.80;99.90;;;;;;5005998;28;20032;-65
2021/09/30 04:54:47;;;;;;;25.48;12.57;;;14.70;99.90;;;;;;5008704;28;20044;-65
2021/09/30 04:57:52;;;;;;;20.88;12.25;;;14.80;99.90;;;;;;5015937;28;20040;-65
2021/09/30 05:00:56;;;;;;;25.45;11.65;;;14.80;99.90;;;;;;5011383;28;20053;-65
2021/09/30 05:04:00;;;;;;;22.38;12.35;;;14.70;99.90;;;;;;5011461;28;20084;-65
2021/09/30 05:07:05;;;;;;;25.73;11.95;;;14.70;99.90;;;;;;5002623;28;20044;-65
2021/09/30 05:10:12;;;;;;;24.30;13.32;;;14.70;99.90;;;;;;5015402;28;20037;-65
2021/09/30 05:13:25;;;;;;;20.35;11.23;;;14.70;99.90;;;;;;5008630;28;20044;-65
2021/09/30 05:16:30;;;;;;;18.75;11.52;;;14.60;99.90;;;;;;5013429;28;20084;-65
2021/09/30 05:20:01;;;;;;;26.88;11.52;;;14.60;99.90;;;;;;5024132;28;20041;-65
2021/09/30 05:23:05;;;;;;;23.00;13.25;;;14.60;99.90;;;;;;5025162;28;20040;-66
2021/09/30 05:26:09;;;;;;;30.23;13.40;;;14.60;99.90;;;;;;5012103;28;20044;-66
2021/09/30 05:29:13;;;;;;;23.83;11.95;;;14.60;99.90;;;;;;5005500;28;20052;-67
2021/09/30 05:32:30;;;;;;;22.67;11.35;;;14.60;99.90;;;;;;5012724;28;20040;-67
2021/09/30 05:35:42;;;;;;;26.75;10.95;;;14.80;99.90;;;;;;5016437;28;20037;-66
2021/09/30 05:38:47;;;;;;;56.47;27.02;;;14.90;99.90;;;;;;5014820;28;20400;-66
2021/09/30 05:41:53;;;;;;;64.32;35.42;;;15.00;99.90;;;;;;5009911;28;20057;-66
2021/09/30 05:44:59;;;;;;;59.42;30.75;;;15.20;99.90;;;;;;5010395;28;20044;-66
2021/09/30 05:48:06;;;;;;;46.75;24.15;;;15.50;99.90;;;;;;5015342;28;20037;-66
2021/09/30 05:51:11;;;;;;;51.13;25.80;;;15.70;99.90;;;;;;5005526;28;20033;-66
2021/09/30 05:54:32;;;;;;;64.32;31.83;;;15.90;99.90;;;;;;5009330;28;20424;-65
2021/09/30 05:57:55;;;;;;;45.13;25.38;;;16.20;99.90;;;;;;5017235;28;20049;-66
2021/09/30 06:01:21;;;;;;;26.15;16.50;;;16.50;99.90;;;;;;5011014;28;20052;-66
2021/09/30 06:12:14;;;;;;;36.90;20.05;;;17.30;99.90;;;;;;5011349;28;20044;-66
2021/09/30 06:14:45;;;;;;;32.78;19.83;;;17.00;99.90;;;;;;5028309;28;20040;-66
2021/09/30 06:17:52;;;;;;;37.03;20.58;;;17.10;99.90;;;;;;5011797;28;20500;-66
2021/09/30 06:20:57;;;;;;;41.53;24.08;;;17.60;99.90;;;;;;5000033;28;20041;-66
2021/09/30 06:24:02;;;;;;;43.88;25.27;;;17.70;99.90;;;;;;5003967;28;20064;-66
2021/09/30 06:27:09;;;;;;;39.47;21.35;;;17.70;99.90;;;;;;5006628;28;20045;-66
2021/09/30 06:30:14;;;;;;;36.15;20.10;;;17.80;99.90;;;;;;5010114;28;20056;-66
2021/09/30 06:33:21;;;;;;;29.73;16.00;;;18.20;99.90;;;;;;5008149;28;20041;-66
2021/09/30 06:36:47;;;;;;;25.63;14.73;;;19.90;99.90;;;;;;5010554;28;20041;-66
2021/09/30 06:39:52;;;;;;;22.98;12.45;;;22.10;99.90;;;;;;5010542;28;20053;-66
2021/09/30 06:42:58;;;;;;;18.33;11.30;;;23.30;99.90;;;;;;5009166;28;20045;-66
2021/09/30 06:46:22;;;;;;;22.85;12.32;;;23.90;99.90;;;;;;5017510;28;20097;-66
2021/09/30 06:49:32;;;;;;;21.45;13.52;;;24.50;99.90;;;;;;5008669;28;20056;-66
2021/09/30 06:52:57;;;;;;;21.90;10.68;;;25.70;99.90;;;;;;5013846;28;20053;-66
2021/09/30 06:56:39;;;;;;;11.32;7.93;;;27.00;99.90;;;;;;4988294;28;20132;-66
2021/09/30 07:00:09;;;;;;;12.68;7.80;;;27.40;99.80;;;;;;4985015;28;20046;-65
2021/09/30 07:03:32;;;;;;;15.73;7.70;;;26.00;99.90;;;;;;5014790;28;20037;-65
2021/09/30 07:06:58;;;;;;;10.82;6.40;;;26.30;99.90;;;;;;5011413;28;20048;-66
2021/09/30 07:10:06;;;;;;;8.55;5.57;;;27.30;99.90;;;;;;4998227;28;20052;-66
2021/09/30 07:13:10;;;;;;;8.05;5.93;;;27.50;98.50;;;;;;5017600;28;20040;-66
2021/09/30 07:16:15;;;;;;;7.57;5.72;;;27.40;97.40;;;;;;5021663;28;20044;-65
2021/09/30 07:19:20;;;;;;;11.55;5.50;;;26.60;98.90;;;;;;5015667;28;20393;-65
2021/09/30 07:22:25;;;;;;;7.90;5.65;;;27.40;97.20;;;;;;5012497;28;20049;-66
2021/09/30 07:25:29;;;;;;;9.05;6.00;;;26.70;97.50;;;;;;5016797;28;20048;-66
2021/09/30 07:28:34;;;;;;;12.13;5.82;;;27.40;97.00;;;;;;5011565;28;20235;-66
2021/09/30 07:31:39;;;;;;;10.60;6.05;;;29.00;96.30;;;;;;5014798;28;20036;-66
2021/09/30 07:34:44;;;;;;;7.22;5.15;;;30.10;93.90;;;;;;5019440;28;20060;-66
2021/09/30 07:37:48;;;;;;;14.40;5.38;;;30.60;93.00;;;;;;5024343;28;20044;-66
2021/09/30 07:40:52;;;;;;;9.75;5.15;;;31.50;91.60;;;;;;5014367;28;20049;-66
2021/09/30 07:43:56;;;;;;;8.02;5.13;;;32.40;90.70;;;;;;5021165;28;20049;-66
2021/09/30 07:47:02;;;;;;;8.85;5.75;;;32.40;88.80;;;;;;5021043;28;20061;-66
2021/09/30 07:50:09;;;;;;;9.45;5.45;;;33.20;87.40;;;;;;5016295;28;20057;-67
2021/09/30 07:53:14;;;;;;;6.25;4.20;;;33.20;86.60;;;;;;5017420;28;20041;-64
2021/09/30 07:56:19;;;;;;;7.18;4.55;;;34.30;84.10;;;;;;5017922;28;20125;-66
2021/09/30 07:59:23;;;;;;;7.18;4.38;;;34.70;83.20;;;;;;5018593;28;20040;-66
2021/09/30 08:02:27;;;;;;;7.82;4.95;;;31.70;85.00;;;;;;5013060;28;20029;-66
2021/09/30 08:05:36;;;;;;;7.82;4.38;;;31.40;86.60;;;;;;5015818;28;20041;-67
2021/09/30 08:08:40;;;;;;;14.05;5.22;;;33.40;83.90;;;;;;5011362;28;20499;-66
2021/09/30 08:11:45;;;;;;;6.15;4.20;;;35.00;81.70;;;;;;5016807;28;20037;-66
2021/09/30 08:14:50;;;;;;;5.43;4.03;;;35.70;80.00;;;;;;5010565;28;20045;-66
2021/09/30 08:17:54;;;;;;;8.48;4.30;;;36.60;78.00;;;;;;5017692;28;20468;-66
2021/09/30 08:20:58;;;;;;;6.50;3.80;;;31.70;81.00;;;;;;5013326;28;20053;-66
2021/09/30 08:24:03;;;;;;;7.60;3.83;;;31.50;83.00;;;;;;5012581;28;20056;-66
2021/09/30 08:27:09;;;;;;;8.52;4.95;;;33.90;81.30;;;;;;5010368;28;20064;-65
2021/09/30 08:30:14;;;;;;;7.80;5.13;;;35.50;79.20;;;;;;5022320;28;20048;-65
2021/09/30 08:33:22;;;;;;;11.30;5.03;;;36.50;77.60;;;;;;5011214;28;20041;-64
2021/09/30 08:36:27;;;;;;;8.30;4.82;;;36.70;76.70;;;;;;5017097;28;20060;-64
2021/09/30 08:39:33;;;;;;;10.27;4.60;;;38.00;75.00;;;;;;5018222;28;20040;-66
2021/09/30 08:42:37;;;;;;;9.50;4.05;;;37.30;74.50;;;;;;5018608;28;20041;-65
2021/09/30 08:45:41;;;;;;;7.35;4.25;;;37.00;74.20;;;;;;5003071;28;20045;-65
2021/09/30 08:48:48;;;;;;;9.38;4.00;;;36.30;72.80;;;;;;5015197;28;20049;-64
2021/09/30 08:51:52;;;;;;;5.70;3.83;;;36.00;74.10;;;;;;5022775;28;20041;-64
2021/09/30 08:54:56;;;;;;;7.63;5.00;;;32.80;78.90;;;;;;5025502;28;20065;-64
2021/09/30 08:58:03;;;;;;;5.75;4.63;;;30.30;83.00;;;;;;5019404;28;20045;-64
2021/09/30 09:01:08;;;;;;;8.98;5.15;;;30.30;84.90;;;;;;5014885;28;20113;-64
2021/09/30 09:04:20;;;;;;;9.98;5.57;;;31.40;82.40;;;;;;5020211;28;20387;-64
2021/09/30 09:07:30;;;;;;;7.60;5.20;;;30.90;82.50;;;;;;5015954;28;20053;-63
2021/09/30 09:10:39;;;;;;;12.30;5.57;;;29.70;83.40;;;;;;5013085;28;20049;-65
2021/09/30 09:13:43;;;;;;;8.25;4.85;;;29.60;86.10;;;;;;5013555;28;20151;-64
2021/09/30 09:17:01;;;;;;;10.38;5.05;;;30.90;84.00;;;;;;5019051;28;20684;-63
2021/09/30 09:20:06;;;;;;;9.20;5.50;;;33.90;80.10;;;;;;5010091;28;20665;-63
2021/09/30 09:23:10;;;;;;;7.85;5.13;;;33.80;78.40;;;;;;5019339;28;20052;-64
2021/09/30 09:26:17;;;;;;;6.93;5.20;;;32.50;82.00;;;;;;5015979;28;20045;-65
2021/09/30 09:29:22;;;;;;;8.90;5.75;;;32.10;82.80;;;;;;4997334;28;20563;-65
2021/09/30 09:32:26;;;;;;;9.07;6.75;;;32.40;81.30;;;;;;5016957;28;20041;-64
2021/09/30 09:35:49;;;;;;;9.45;5.97;;;31.20;81.40;;;;;;5023261;28;20033;-64
2021/09/30 09:38:55;;;;;;;8.20;6.68;;;30.90;82.80;;;;;;5014367;28;20068;-64
2021/09/30 09:42:15;;;;;;;8.40;5.55;;;30.40;82.80;;;;;;5019578;28;20037;-66
2021/09/30 09:45:19;;;;;;;9.55;5.55;;;32.80;81.30;;;;;;5019573;28;20036;-66
2021/09/30 09:48:23;;;;;;;8.23;5.50;;;34.20;78.60;;;;;;5019553;28;20044;-65
2021/09/30 09:51:47;;;;;;;7.28;6.47;;;33.40;79.00;;;;;;5018430;28;20491;-64
2021/09/30 09:54:52;;;;;;;7.55;5.40;;;35.30;77.40;;;;;;5014542;28;20502;-65
2021/09/30 09:58:06;;;;;;;8.57;5.38;;;35.70;74.80;;;;;;5015558;28;20045;-66
2021/09/30 10:01:11;;;;;;;14.02;5.25;;;38.60;73.00;;;;;;5015301;28;20419;-66
2021/09/30 10:04:16;;;;;;;6.72;5.30;;;39.20;71.30;;;;;;5021689;28;20128;-66
2021/09/30 10:07:20;;;;;;;8.45;4.88;;;36.60;72.20;;;;;;5023062;28;20056;-66
2021/09/30 10:10:25;;;;;;;6.63;5.20;;;37.90;72.30;;;;;;5014904;28;20056;-65
2021/09/30 10:13:32;;;;;;;10.13;5.68;;;39.80;70.40;;;;;;5022580;28;20056;-65
2021/09/30 10:16:37;;;;;;;6.18;5.18;;;37.50;70.20;;;;;;5027729;28;20032;-64
2021/09/30 10:19:43;;;;;;;6.15;4.70;;;37.30;72.00;;;;;;5008429;28;20037;-65
2021/09/30 10:22:53;;;;;;;8.45;5.05;;;40.20;69.70;;;;;;5017796;28;20045;-66
2021/09/30 10:26:06;;;;;;;6.03;4.75;;;42.80;65.80;;;;;;5020065;28;20060;-65
2021/09/30 10:29:33;;;;;;;7.93;4.60;;;44.50;63.60;;;;;;5009665;28;20041;-65
2021/09/30 10:32:50;;;;;;;9.88;5.10;;;44.30;60.90;;;;;;5017779;28;20388;-65
2021/09/30 10:35:55;;;;;;;4.85;4.35;;;44.50;59.90;;;;;;5021781;28;20039;-66
2021/09/30 10:39:18;;;;;;;6.55;4.68;;;44.70;58.80;;;;;;5022720;28;20491;-65
2021/09/30 10:42:40;;;;;;;8.27;4.70;;;45.20;58.30;;;;;;5026486;28;20044;-66
2021/09/30 10:45:44;;;;;;;6.28;5.28;;;46.00;57.50;;;;;;5026579;28;20044;-65
2021/09/30 10:48:53;;;;;;;5.10;4.50;;;46.40;56.40;;;;;;5019969;28;20060;-65
2021/09/30 10:52:13;;;;;;;5.45;4.65;;;42.50;57.80;;;;;;5010386;28;20045;-66
2021/09/30 10:55:17;;;;;;;5.88;4.60;;;42.80;58.40;;;;;;5015128;28;20053;-65
2021/09/30 10:58:24;;;;;;;7.47;5.20;;;43.00;57.80;;;;;;5016186;28;20045;-65
2021/09/30 11:01:28;;;;;;;7.35;5.65;;;37.30;62.50;;;;;;5019264;28;20041;-65
2021/09/30 11:05:07;;;;;;;6.22;5.05;;;37.60;64.00;;;;;;5020404;28;20041;-65
2021/09/30 11:08:26;;;;;;;6.55;5.80;;;37.70;63.30;;;;;;5020676;28;20044;-66
2021/09/30 11:11:30;;;;;;;8.60;6.05;;;36.90;64.80;;;;;;5017500;28;20040;-65
2021/09/30 11:14:54;;;;;;;12.48;5.72;;;38.00;64.60;;;;;;5018663;28;20048;-66
2021/09/30 11:17:58;;;;;;;8.13;5.80;;;39.20;62.20;;;;;;5022534;28;20503;-65
2021/09/30 11:21:02;;;;;;;7.28;4.85;;;38.20;61.80;;;;;;5017669;28;20052;-65
2021/09/30 11:24:08;;;;;;;5.63;5.00;;;39.60;62.40;;;;;;5021426;28;20044;-66
2021/09/30 11:27:14;;;;;;;9.18;5.85;;;38.60;63.20;;;;;;5021730;28;20475;-66
2021/09/30 11:30:22;;;;;;;7.53;5.40;;;39.40;60.50;;;;;;5018566;28;20580;-66
2021/09/30 11:33:26;;;;;;;7.82;5.72;;;37.80;63.20;;;;;;5019254;28;20052;-65
2021/09/30 11:36:36;;;;;;;6.20;5.15;;;37.60;62.70;;;;;;5021154;28;20045;-65
2021/09/30 11:39:40;;;;;;;6.20;4.63;;;36.40;64.40;;;;;;5000777;28;20037;-65
2021/09/30 11:42:53;;;;;;;7.03;4.55;;;39.40;62.40;;;;;;5012324;28;20044;-65
2021/09/30 11:45:58;;;;;;;10.20;5.25;;;42.20;60.30;;;;;;5019614;28;20049;-65
2021/09/30 11:49:03;;;;;;;5.82;4.72;;;43.70;57.90;;;;;;5020716;28;20040;-66
2021/09/30 11:52:12;;;;;;;5.72;4.32;;;44.70;56.90;;;;;;5023321;28;20031;-66
2021/09/30 11:55:17;;;;;;;4.80;4.38;;;45.60;55.60;;;;;;5022107;28;20044;-66
2021/09/30 11:58:21;;;;;;;5.55;4.00;;;45.80;53.80;;;;;;5020342;28;20121;-66
2021/09/30 12:01:34;;;;;;;8.65;4.30;;;46.80;52.90;;;;;;5018347;28;20040;-66
2021/09/30 12:07:47;;;;;;;4.85;4.00;;;47.60;51.10;;;;;;5018147;28;20038;-66
2021/09/30 12:10:59;;;;;;;5.95;4.32;;;46.70;50.70;;;;;;5013760;28;20931;-67
2021/09/30 12:14:06;;;;;;;4.03;3.63;;;46.70;50.80;;;;;;5000274;28;20056;-66
2021/09/30 12:17:18;;;;;;;5.82;3.90;;;46.50;50.60;;;;;;5003035;28;20500;-65
2021/09/30 12:20:22;;;;;;;4.82;4.32;;;44.30;51.60;;;;;;5016107;28;20126;-65
2021/09/30 12:23:27;;;;;;;5.90;4.20;;;43.00;53.20;;;;;;5013991;28;20606;-66
2021/09/30 12:26:32;;;;;;;6.05;4.82;;;41.40;54.00;;;;;;5012536;28;20032;-65
2021/09/30 12:29:42;;;;;;;5.90;4.95;;;39.90;54.80;;;;;;5016643;28;20037;-65
2021/09/30 12:32:50;;;;;;;9.35;5.10;;;38.40;56.40;;;;;;5017267;28;20045;-65
2021/09/30 12:36:03;;;;;;;8.13;4.78;;;37.10;57.80;;;;;;5013149;28;20037;-66
2021/09/30 12:39:08;;;;;;;8.20;4.85;;;35.90;58.80;;;;;;5019235;28;20400;-65
2021/09/30 12:42:15;;;;;;;8.63;5.30;;;35.30;59.50;;;;;;5015112;28;20480;-65
2021/09/30 12:45:19;;;;;;;9.00;5.43;;;34.90;60.80;;;;;;5014739;28;20036;-65
2021/09/30 12:48:25;;;;;;;8.15;5.60;;;34.40;60.80;;;;;;5014070;28;20052;-66
2021/09/30 12:51:29;;;;;;;10.23;5.20;;;33.80;61.40;;;;;;5015919;28;20028;-65
2021/09/30 12:54:33;;;;;;;6.22;4.78;;;33.70;61.50;;;;;;5018074;28;20416;-65
2021/09/30 12:57:37;;;;;;;5.85;5.25;;;34.00;62.70;;;;;;5013398;28;20680;-65
2021/09/30 13:00:42;;;;;;;5.53;4.88;;;34.60;63.60;;;;;;5017923;28;20041;-66
2021/09/30 13:04:11;;;;;;;5.00;4.55;;;37.00;61.20;;;;;;5020734;28;20041;-66
2021/09/30 13:07:18;;;;;;;5.18;4.68;;;39.40;58.20;;;;;;5013552;28;20036;-66
2021/09/30 13:10:33;;;;;;;8.50;5.05;;;38.50;58.70;;;;;;5015295;28;20057;-66
2021/09/30 13:13:37;;;;;;;5.60;4.63;;;37.30;60.10;;;;;;5020228;28;20048;-66
2021/09/30 13:16:43;;;;;;;5.88;4.97;;;36.60;60.90;;;;;;5010635;28;20057;-64
2021/09/30 13:20:06;;;;;;;6.07;5.45;;;35.20;62.00;;;;;;5019420;28;20052;-65
2021/09/30 13:23:11;;;;;;;10.77;5.50;;;33.60;64.20;;;;;;5024899;28;20044;-65
2021/09/30 13:26:15;;;;;;;7.00;5.65;;;32.50;66.20;;;;;;5016741;28;20049;-64
2021/09/30 13:29:19;;;;;;;8.75;6.03;;;31.70;67.60;;;;;;5019320;28;20036;-64
2021/09/30 13:32:26;;;;;;;7.03;5.75;;;31.30;68.40;;;;;;5020893;28;20388;-65
2021/09/30 13:35:32;;;;;;;7.05;5.80;;;31.00;69.40;;;;;;5023209;28;20388;-65
2021/09/30 13:38:36;;;;;;;8.77;5.50;;;31.50;69.00;;;;;;5018489;28;20064;-65
2021/09/30 13:41:40;;;;;;;6.75;5.32;;;32.90;66.90;;;;;;5022536;28;20045;-66
2021/09/30 13:44:47;;;;;;;7.13;5.40;;;34.20;64.80;;;;;;5018313;28;20045;-66
2021/09/30 13:47:52;;;;;;;5.68;4.55;;;36.20;63.10;;;;;;5015762;28;20424;-66
2021/09/30 13:50:56;;;;;;;5.88;5.05;;;37.60;60.60;;;;;;5025871;28;20311;-65
2021/09/30 13:54:00;;;;;;;5.47;4.60;;;36.90;61.20;;;;;;5015697;28;20052;-65
2021/09/30 13:57:04;;;;;;;8.90;5.38;;;35.50;62.70;;;;;;5022093;28;20045;-65
2021/09/30 14:00:13;;;;;;;8.65;5.55;;;34.40;64.30;;;;;;5017655;28;20040;-65
2021/09/30 14:03:17;;;;;;;9.18;5.03;;;33.40;65.80;;;;;;5018039;28;20048;-65
2021/09/30 14:06:22;;;;;;;8.43;5.15;;;34.10;66.00;;;;;;5011105;28;20037;-64
2021/09/30 14:09:26;;;;;;;6.30;4.90;;;35.50;64.80;;;;;;5025683;28;20475;-65
2021/09/30 14:12:31;;;;;;;11.13;5.20;;;36.60;62.40;;;;;;5016526;28;20045;-67
2021/09/30 14:15:36;;;;;;;10.02;6.50;;;37.00;60.60;;;;;;5020799;28;20400;-67
2021/09/30 14:18:40;;;;;;;4.47;4.05;;;36.50;59.80;;;;;;5024697;28;20036;-67
2021/09/30 14:21:45;;;;;;;6.40;4.25;;;36.70;60.10;;;;;;5023926;28;20044;-66
2021/09/30 14:24:49;;;;;;;5.70;4.05;;;36.90;59.90;;;;;;5023249;28;20499;-67
2021/09/30 14:27:53;;;;;;;10.07;4.78;;;36.50;59.60;;;;;;5021033;28;20400;-66
2021/09/30 14:30:57;;;;;;;9.77;5.63;;;35.40;61.10;;;;;;5023714;28;20395;-66
2021/09/30 14:34:01;;;;;;;7.72;4.72;;;34.40;62.60;;;;;;5023296;28;20041;-65
2021/09/30 14:37:06;;;;;;;19.35;6.03;;;33.80;62.90;;;;;;5020951;28;20397;-65
2021/09/30 14:40:11;;;;;;;16.58;5.00;;;32.50;64.40;;;;;;5009427;28;20383;-66
2021/09/30 14:43:15;;;;;;;8.57;4.95;;;31.60;65.80;;;;;;5017510;28;20040;-65
2021/09/30 14:46:19;;;;;;;8.38;4.55;;;31.40;66.20;;;;;;5025218;28;20495;-65
2021/09/30 14:49:25;;;;;;;6.90;4.78;;;30.80;67.50;;;;;;5006702;28;20037;-67
2021/09/30 14:52:30;;;;;;;8.48;5.25;;;30.50;68.10;;;;;;5020302;28;20044;-67
2021/09/30 14:55:34;;;;;;;14.52;6.10;;;30.20;68.70;;;;;;5024456;28;20036;-68
2021/09/30 14:58:39;;;;;;;11.15;6.03;;;29.70;69.80;;;;;;5018885;28;20045;-68
2021/09/30 15:01:43;;;;;;;8.15;5.13;;;29.50;70.30;;;;;;5017606;28;20037;-66
2021/09/30 15:04:47;;;;;;;8.18;5.00;;;28.80;71.00;;;;;;4993233;28;20045;-66
2021/09/30 15:07:51;;;;;;;6.85;4.47;;;28.50;72.20;;;;;;5026288;28;20062;-66
2021/09/30 15:10:55;;;;;;;10.02;5.50;;;28.30;72.60;;;;;;5009305;28;20487;-67
2021/09/30 15:13:58;;;;;;;11.52;5.22;;;28.40;72.60;;;;;;5020737;28;20507;-66
2021/09/30 15:17:11;;;;;;;11.18;5.45;;;28.10;73.00;;;;;;5010498;28;20077;-67
2021/09/30 15:23:31;;;;;;;7.35;5.28;;;28.20;73.30;;;;;;5025468;28;20512;-66
2021/09/30 15:26:35;;;;;;;9.38;5.72;;;28.00;73.30;;;;;;5024322;28;20040;-66
2021/09/30 15:29:40;;;;;;;7.22;5.30;;;28.00;73.50;;;;;;5021450;28;20099;-67
2021/09/30 15:32:44;;;;;;;15.60;6.45;;;27.70;74.10;;;;;;5019742;28;20045;-67
2021/09/30 15:35:47;;;;;;;8.93;5.53;;;27.50;74.40;;;;;;5025957;28;20040;-67
2021/09/30 15:38:55;;;;;;;12.05;5.07;;;27.30;75.10;;;;;;5020292;28;20041;-67
2021/09/30 15:41:59;;;;;;;9.35;5.22;;;27.00;75.50;;;;;;5018825;28;20045;-66
2021/09/30 15:45:05;;;;;;;11.13;5.47;;;26.70;75.90;;;;;;5022682;28;20036;-66
2021/09/30 15:48:09;;;;;;;13.02;5.35;;;26.40;77.00;;;;;;5019224;28;20048;-66
2021/09/30 15:51:14;;;;;;;9.10;5.50;;;26.10;77.20;;;;;;5016218;28;20044;-66
2021/09/30 15:54:17;;;;;;;9.00;5.07;;;25.90;77.90;;;;;;5007274;28;20041;-66
2021/09/30 15:57:22;;;;;;;10.80;6.05;;;25.70;78.20;;;;;;5019272;28;20041;-66
2021/09/30 16:00:26;;;;;;;8.75;5.57;;;25.50;78.70;;;;;;5016148;28;20049;-66
2021/09/30 16:03:31;;;;;;;12.27;6.85;;;25.40;78.40;;;;;;5017579;28;20041;-67
2021/09/30 16:06:35;;;;;;;11.18;5.70;;;25.10;79.10;;;;;;5022934;28;20036;-65
2021/09/30 16:09:39;;;;;;;14.45;6.28;;;24.90;79.80;;;;;;5025104;28;20040;-66
2021/09/30 16:12:44;;;;;;;14.25;6.28;;;24.80;80.00;;;;;;5023861;28;20044;-65
2021/09/30 16:15:48;;;;;;;13.00;5.68;;;24.60;80.60;;;;;;5020051;28;20398;-65
2021/09/30 16:18:51;;;;;;;11.73;6.18;;;24.40;81.30;;;;;;5022389;28;20503;-66
2021/09/30 16:21:57;;;;;;;10.68;5.88;;;24.30;81.80;;;;;;5025210;28;20045;-66
2021/09/30 16:25:03;;;;;;;12.45;5.88;;;24.10;82.10;;;;;;5021191;28;20048;-66
2021/09/30 16:28:07;;;;;;;8.85;5.70;;;24.10;82.50;;;;;;5021297;28;20048;-68
2021/09/30 16:31:11;;;;;;;11.13;5.78;;;24.00;82.90;;;;;;5018432;28;20040;-68
2021/09/30 16:34:15;;;;;;;11.75;5.90;;;23.90;83.40;;;;;;5006528;28;20064;-66
2021/09/30 16:37:19;;;;;;;11.57;5.78;;;23.80;83.90;;;;;;5019148;28;20044;-66
2021/09/30 16:40:23;;;;;;;9.30;5.60;;;23.70;84.30;;;;;;5022441;28;20037;-66
2021/09/30 16:43:28;;;;;;;10.63;5.80;;;23.60;84.70;;;;;;5018135;28;20044;-66
2021/09/30 16:46:32;;;;;;;11.70;6.35;;;23.40;85.10;;;;;;5016974;28;20044;-65
2021/09/30 16:49:37;;;;;;;10.18;6.45;;;23.30;85.60;;;;;;5007838;28;20407;-66
2021/09/30 16:52:45;;;;;;;17.20;5.97;;;23.20;85.90;;;;;;5017369;28;20044;-66
2021/09/30 16:55:49;;;;;;;14.95;6.50;;;23.20;86.00;;;;;;5019227;28;20041;-66
2021/09/30 16:58:54;;;;;;;11.63;6.03;;;23.10;86.30;;;;;;5020185;28;20405;-66
2021/09/30 17:01:58;;;;;;;12.05;6.47;;;22.90;86.70;;;;;;5019013;28;20044;-66
2021/09/30 17:05:05;;;;;;;10.52;6.43;;;22.80;87.00;;;;;;5008839;28;20052;-66
2021/09/30 17:08:09;;;;;;;12.57;6.60;;;22.60;87.60;;;;;;5013969;28;20056;-66
2021/09/30 17:11:15;;;;;;;9.48;6.40;;;22.60;88.00;;;;;;5021231;28;20396;-66
2021/09/30 17:14:19;;;;;;;14.38;6.63;;;22.50;88.40;;;;;;5007714;28;20041;-67
2021/09/30 17:17:24;;;;;;;13.40;7.25;;;22.40;88.80;;;;;;5021056;28;20044;-68
2021/09/30 17:20:29;;;;;;;11.38;7.03;;;22.30;89.30;;;;;;5017670;28;20037;-66
2021/09/30 17:23:33;;;;;;;14.27;6.50;;;22.20;89.70;;;;;;5012054;28;20040;-65
2021/09/30 17:26:38;;;;;;;12.60;6.28;;;22.20;90.00;;;;;;5017616;28;20053;-66
2021/09/30 17:29:42;;;;;;;14.35;6.53;;;22.10;90.50;;;;;;4993189;28;20045;-65
2021/09/30 17:32:47;;;;;;;9.15;5.95;;;22.00;90.70;;;;;;5020626;28;20037;-65
2021/09/30 17:35:51;;;;;;;13.20;6.00;;;21.90;91.00;;;;;;5017505;28;20057;-65
2021/09/30 17:38:56;;;;;;;12.52;7.20;;;21.80;91.70;;;;;;5019518;28;20060;-65
2021/09/30 17:42:01;;;;;;;21.15;7.95;;;21.60;92.60;;;;;;5017223;28;20056;-64
2021/09/30 17:45:06;;;;;;;10.30;6.95;;;21.20;93.40;;;;;;5016592;28;20049;-65
2021/09/30 17:48:12;;;;;;;12.63;7.53;;;20.90;94.10;;;;;;5019076;28;20044;-66
2021/09/30 17:51:17;;;;;;;12.10;6.93;;;20.90;94.50;;;;;;5016610;28;20044;-65
2021/09/30 17:54:21;;;;;;;12.10;6.95;;;20.90;95.00;;;;;;5020333;28;20036;-66
2021/09/30 17:57:25;;;;;;;12.27;7.28;;;20.80;95.20;;;;;;5005836;28;20041;-65
2021/09/30 18:00:29;;;;;;;18.48;8.35;;;20.70;95.60;;;;;;5017803;28;20045;-66
2021/09/30 18:03:34;;;;;;;12.45;7.65;;;20.70;95.90;;;;;;5018023;28;20045;-65
2021/09/30 18:06:38;;;;;;;17.17;7.68;;;20.70;96.20;;;;;;5024422;28;20041;-64
2021/09/30 18:09:42;;;;;;;15.70;8.38;;;20.60;96.60;;;;;;5028398;28;20036;-65
2021/09/30 18:12:46;;;;;;;14.25;7.47;;;20.50;96.90;;;;;;5025300;28;20053;-65
2021/09/30 18:15:51;;;;;;;11.60;7.72;;;20.60;96.80;;;;;;4991029;28;20052;-66
2021/09/30 18:18:58;;;;;;;14.38;7.15;;;20.50;97.10;;;;;;5024586;28;20040;-65
2021/09/30 18:22:02;;;;;;;14.38;7.95;;;20.50;97.40;;;;;;5012927;28;20495;-65
2021/09/30 18:25:10;;;;;;;15.43;7.68;;;20.40;97.70;;;;;;5020304;28;20511;-66
2021/09/30 18:28:14;;;;;;;16.23;8.35;;;20.40;98.10;;;;;;5024042;28;20036;-65
2021/09/30 18:31:20;;;;;;;16.70;6.88;;;20.30;98.60;;;;;;5019996;28;20122;-65
2021/09/30 18:34:28;;;;;;;13.07;7.28;;;20.20;99.00;;;;;;5020505;28;20037;-65
2021/09/30 18:37:32;;;;;;;15.15;7.53;;;20.00;99.80;;;;;;5022590;28;20040;-65
2021/09/30 18:40:37;;;;;;;11.45;7.30;;;20.00;99.90;;;;;;5026520;28;20052;-65
2021/09/30 18:43:42;;;;;;;12.98;7.45;;;19.90;99.90;;;;;;5019750;28;20045;-65
2021/09/30 18:46:47;;;;;;;9.75;7.00;;;19.90;99.90;;;;;;5022389;28;20515;-66
2021/09/30 18:49:51;;;;;;;11.90;7.10;;;19.90;99.90;;;;;;5010500;28;20040;-65
2021/09/30 18:52:55;;;;;;;13.05;6.63;;;19.90;99.90;;;;;;5014424;28;20036;-66
2021/09/30 18:56:00;;;;;;;14.27;7.43;;;19.90;99.90;;;;;;5011015;28;20408;-68
2021/09/30 18:59:04;;;;;;;11.82;7.53;;;20.20;99.70;;;;;;5022952;28;20036;-65
2021/09/30 19:02:10;;;;;;;10.82;6.70;;;20.40;99.20;;;;;;5005694;28;20041;-66
2021/09/30 19:05:14;;;;;;;14.85;7.50;;;20.50;99.10;;;;;;5018289;28;20034;-66